Latest Coastal Weather Observations for Cape Otway

IDT60701

Issued at 3:32 am EDT Friday 31 March 2017 (issued every 10 minutes, with the page automatically refreshed every 10 minutes)

About coastal observations | Map of coastal stations | Coastal observations for TAS | Marine services | Other Formats
Station Details ID: 090015 Name: CAPE OTWAY LIGHTHOUSE Lat: -38.86 Lon: 143.51 Height: 82.0 m
Data from the previous 72 hours. | See also: Recent months at Cape Otway
Date/Time
EDT
Temp
°C
Wind Pressure Rain since
9am
mm
Weather Cloud Vis
km
Sea
Height
m
Swell
Dir  Spd
kts
Gust
kts
hPa Trend Height
m
Period
s
Dir
31/03:00am 13.4 SW 9 13 1020.8 - 0.4 - - - - - - -
31/02:30am 13.1 SSW 8 12 1021.1 - 0.4 - - - - - - -
31/02:00am 13.2 SSW 8 13 1021.3 - 0.4 - - - - - - -
31/01:30am 13.1 SSW 9 12 1021.5 - 0.4 - - - - - - -
31/01:00am 13.2 SSW 11 16 1021.9 - 0.4 - - - - - - -
31/12:30am 13.1 SSW 11 17 1022.0 - 0.4 - - - - - - -
31/12:00am 13.1 SSW 8 13 1022.2 - 0.4 - - - - - - -
 
Date/Time
EDT
Temp
°C
Wind Pressure Rain since
9am
mm
Weather Cloud Vis
km
Sea
Height
m
Swell
Dir  Spd
kts
Gust
kts
hPa Trend Height
m
Period
s
Dir
30/11:30pm 12.9 SSW 9 13 1022.5 - 0.4 - - - - - - -
30/11:00pm 12.7 SSW 16 23 1022.5 - 0.4 - - - - - - -
30/10:30pm 13.5 SSW 14 18 1022.8 - 0.4 - - - - - - -
30/10:00pm 13.7 SSW 16 22 1022.6 - 0.4 - - - - - - -
30/09:36pm 13.3 SSW 15 25 1022.6 - 0.4 - - - - - - -
30/09:30pm 13.5 SSW 17 25 1022.4 - 0.4 - - - - - - -
30/09:00pm 13.4 SSW 14 19 1022.5 - 0.4 - - - - - - -
30/08:30pm 13.5 SSW 15 22 1022.2 - 0.4 - - - - - - -
30/08:00pm 13.2 SSW 17 22 1021.7 - 0.4 - - - - - - -
30/07:30pm 12.8 SSW 19 26 1021.4 - 0.4 - - - - - - -
30/07:00pm 13.2 SSW 22 27 1020.8 - 0.4 - - - - - - -
30/06:51pm 13.4 SSW 17 27 1020.7 - 0.4 - - - - - - -
30/06:30pm 13.7 SW 15 23 1020.6 - 0.4 - - - - - - -
30/06:00pm 13.7 SSW 14 19 1020.3 - 0.4 - - - - - - -
30/05:30pm 12.7 SSW 19 29 1020.2 - 0.4 - - - - - - -
30/05:19pm 13.1 SW 22 35 1019.7 - 0.4 - - - - - - -
30/05:12pm 13.8 SSW 15 25 1019.8 - 0.4 - - - - - - -
30/05:00pm 13.9 SSW 15 20 1019.7 - 0.4 - - - - - - -
30/04:30pm 14.3 SW 17 24 1019.5 - 0.4 - - - - - - -
30/04:06pm 14.5 SW 17 27 1019.1 - 0.4 - - - - - - -
30/04:00pm 14.7 SW 20 25 1019.0 - 0.4 - - - - - - -
30/03:30pm 14.1 SSW 17 24 1018.8 - 0.4 - - - - - - -
30/03:00pm 15.5 SW 17 22 1018.5 - 0.4 - - - - - - -
30/02:30pm 15.0 SW 16 22 1018.6 - 0.4 - - - - - - -
30/02:00pm 14.5 SSW 17 24 1018.5 - 0.4 - - - - - - -
30/01:30pm 14.5 SW 17 23 1018.5 - 0.4 - - - - - - -
30/01:00pm 12.3 SW 24 32 1018.6 - 0.4 - - - - - - -
30/12:30pm 12.6 WSW 14 23 1018.4 - 0.2 - - - - - - -
30/12:07pm 14.5 SW 18 28 1018.0 - 0.2 - - - - - - -
30/12:00pm 14.7 SW 18 24 1018.1 - 0.2 - - - - - - -
30/11:30am 14.8 SW 17 23 1018.0 - 0.2 - - - - - - -
30/11:00am 13.6 SSW 9 15 1017.9 - 0.2 - - - - - - -
30/10:30am 14.5 SW 18 31 1017.4 - 0.0 - - - - - - -
30/10:00am 14.2 SW 18 24 1017.3 - 0.0 - - - - - - -
30/09:40am 14.5 SW 18 28 1016.9 - 0.0 - - - - - - -
30/09:30am 14.2 SW 17 22 1016.8 - 0.0 - - - - - - -
30/09:00am 14.1 SW 21 28 1016.3 - 7.0 - - - - - - -
30/08:30am 13.9 SW 17 22 1015.8 - 7.0 - - - - - - -
30/08:00am 13.6 SW 21 27 1015.2 - 7.0 - - - - - - -
30/07:35am 13.0 SW 23 33 1014.8 - 7.0 - - - - - - -
30/07:30am 13.3 SW 25 33 1014.7 - 7.0 - - - - - - -
30/07:25am 13.6 SW 21 31 1014.5 - 7.0 - - - - - - -
30/07:00am 13.8 SW 18 26 1014.3 - 7.0 - - - - - - -
30/06:30am 13.9 SW 19 26 1013.7 - 7.0 - - - - - - -
30/06:00am 13.8 SW 18 28 1013.1 - 7.0 - - - - - - -
30/05:51am 13.7 WSW 17 27 1013.0 - 7.0 - - - - - - -
30/05:30am 13.7 SW 21 29 1012.7 - 7.0 - - - - - - -
30/05:11am 13.5 WSW 17 29 1012.4 - 7.0 - - - - - - -
30/05:00am 12.8 SW 17 24 1012.4 - 7.0 - - - - - - -
30/04:44am 13.8 WSW 18 28 1012.1 - 6.8 - - - - - - -
30/04:30am 13.8 WSW 18 26 1012.2 - 6.8 - - - - - - -
30/04:00am 13.1 W 17 27 1012.0 - 6.8 - - - - - - -
30/03:54am 13.8 WSW 17 27 1011.9 - 6.8 - - - - - - -
30/03:30am 13.6 W 17 24 1012.0 - 6.8 - - - - - - -
30/03:00am 13.2 WSW 19 27 1012.0 - 6.8 Recent precip. - - - - - -
30/02:30am 13.2 WSW 19 33 1011.7 - 6.2 - - - - - - -
30/02:00am 14.2 WSW 20 31 1011.5 - 6.2 - - - - - - -
30/01:42am 14.0 WSW 18 30 1011.3 - 6.2 - - - - - - -
30/01:30am 13.9 WSW 19 27 1011.2 - 6.2 - - - - - - -
30/01:06am 13.8 W 19 30 1011.1 - 6.0 - - - - - - -
30/01:00am 14.3 WSW 18 27 1011.0 - 6.0 - - - - - - -
30/12:39am 14.2 W 19 29 1011.1 - 6.0 - - - - - - -
30/12:30am 14.1 W 21 29 1010.9 - 6.0 - - - - - - -
30/12:07am 13.2 WNW 15 25 1010.6 - 6.0 - - - - - - -
30/12:00am 13.0 WNW 15 23 1010.7 - 6.0 - - - - - - -
 
Date/Time
EDT
Temp
°C
Wind Pressure Rain since
9am
mm
Weather Cloud Vis
km
Sea
Height
m
Swell
Dir  Spd
kts
Gust
kts
hPa Trend Height
m
Period
s
Dir
29/11:30pm 12.7 WNW 15 23 1010.5 - 6.0 - - - - - - -
29/11:00pm 12.2 NW 11 16 1010.3 - 6.0 - - - - - - -
29/10:30pm 12.4 NW 13 21 1010.6 - 6.0 - - - - - - -
29/10:00pm 12.3 NW 9 14 1010.0 - 6.0 - - - - - - -
29/09:30pm 12.9 WNW 13 19 1010.0 - 6.0 - - - - - - -
29/09:00pm 12.4 W 12 19 1009.3 - 6.0 Recent precip. - - - - - -
29/08:30pm 11.8 WNW 11 15 1008.9 - 6.0 - - - - - - -
29/08:00pm 11.9 W 12 17 1009.2 - 5.6 - - - - - - -
29/07:30pm 12.7 W 14 20 1009.2 - 3.2 - - - - - - -
29/07:00pm 12.4 WSW 16 22 1008.8 - 2.4 - - - - - - -
29/06:44pm 12.5 WSW 15 25 1008.8 - 2.2 - - - - - - -
29/06:30pm 11.9 WSW 18 25 1008.6 - 2.2 - - - - - - -
29/06:00pm 12.2 WSW 21 32 1008.4 - 1.0 Rain - - - - - -
29/05:35pm 12.8 WSW 24 35 1007.7 - 0.4 - - - - - - -
29/05:30pm 12.6 WSW 25 32 1007.5 - 0.4 - - - - - - -
29/05:17pm 12.8 SW 26 37 1007.2 - 0.4 - - - - - - -
29/05:00pm 12.8 SW 34 45 1006.3 - 0.2 - - - - - - -
29/04:40pm 12.9 SW 33 45 1005.3 - 0.0 - - - - - - -
29/04:36pm 12.9 SW 31 45 1005.1 - 0.0 - - - - - - -
29/04:30pm 13.6 SW 29 40 1005.0 - 0.0 - - - - - - -
29/04:00pm 17.4 W 23 42 1003.7 - 0.0 - - - - - - -
29/03:56pm 18.7 W 18 33 1003.4 - 0.0 - - - - - - -
29/03:53pm 18.9 W 16 25 1003.3 - 0.0 - - - - - - -
29/03:30pm 20.2 WNW 10 15 1003.3 - 0.0 - - - - - - -
29/03:00pm 19.7 WNW 12 19 1003.8 - 0.0 - - - - - - -
29/02:30pm 20.1 WNW 16 26 1004.2 - 0.0 - - - - - - -
29/02:26pm 20.2 WNW 15 25 1004.2 - 0.0 - - - - - - -
29/02:00pm 19.6 WNW 14 22 1004.5 - 0.0 - - - - - - -
29/01:30pm 19.5 NW 12 19 1004.9 - 0.0 - - - - - - -
29/01:00pm 19.3 NW 13 20 1005.4 - 0.0 - - - - - - -
29/12:30pm 16.8 NW 13 18 1005.6 - 0.0 - - - - - - -
29/12:00pm 18.5 WNW 13 22 1006.0 - 0.0 - - - - - - -
29/11:30am 19.3 NW 13 21 1006.2 - 0.0 - - - - - - -
29/11:00am 18.3 NW 13 19 1006.6 - 0.0 - - - - - - -
29/10:30am 17.2 NW 15 22 1007.0 - 0.0 - - - - - - -
29/10:06am 17.9 NW 15 26 1006.8 - 0.0 - - - - - - -
29/10:00am 18.1 NW 13 22 1006.8 - 0.0 - - - - - - -
29/09:30am 17.3 NW 13 21 1006.7 - 0.0 - - - - - - -
29/09:00am 17.3 NW 14 23 1006.9 - 0.0 - - - - - - -
29/08:30am 15.9 NNW 12 18 1007.0 - 0.0 - - - - - - -
29/08:00am 16.1 NW 13 19 1007.1 - 0.0 - - - - - - -
29/07:30am 15.9 NNW 11 17 1007.0 - 0.0 - - - - - - -
29/07:00am 15.3 NNW 11 17 1006.9 - 0.0 - - - - - - -
29/06:30am 15.3 NNW 11 17 1007.2 - 0.0 - - - - - - -
29/06:00am 15.1 NNW 10 15 1007.4 - 0.0 - - - - - - -
29/05:30am 14.8 NNW 8 11 1007.7 - 0.0 - - - - - - -
29/05:00am 15.0 NNW 7 10 1008.2 - 0.0 - - - - - - -
29/04:30am 15.4 NNW 9 14 1008.3 - 0.0 - - - - - - -
29/04:00am 15.2 NNW 10 14 1008.4 - 0.0 - - - - - - -
29/03:30am 15.4 NW 9 13 1008.8 - 0.0 - - - - - - -
29/03:00am 15.1 NNW 7 11 1009.3 - 0.0 - - - - - - -
29/02:30am 14.9 NNW 6 10 1009.7 - 0.0 - - - - - - -
29/02:00am 14.8 NNW 8 11 1010.0 - 0.0 - - - - - - -
29/01:30am 14.9 NNW 9 13 1010.3 - 0.0 - - - - - - -
29/01:00am 14.7 NW 8 11 1010.5 - 0.0 - - - - - - -
29/12:30am 14.6 NNW 8 12 1010.8 - 0.0 - - - - - - -
29/12:00am 14.3 NNW 8 10 1011.2 - 0.0 - - - - - - -
 
Date/Time
EDT
Temp
°C
Wind Pressure Rain since
9am
mm
Weather Cloud Vis
km
Sea
Height
m
Swell
Dir  Spd
kts
Gust
kts
hPa Trend Height
m
Period
s
Dir
28/11:30pm 14.1 NNW 8 9 1010.9 - 0.0 - - - - - - -
28/11:00pm 14.2 NNW 8 10 1011.1 - 0.0 - - - - - - -
28/10:30pm 14.2 NNW 8 10 1011.2 - 0.0 - - - - - - -
28/10:00pm 14.2 NNW 8 9 1011.4 - 0.0 - - - - - - -
28/09:30pm 14.3 NNW 7 9 1011.5 - 0.0 - - - - - - -
28/09:00pm 15.1 NW 8 9 1011.7 - 0.0 - - - - - - -
28/08:30pm 15.5 NNW 7 10 1011.6 - 0.0 - - - - - - -
28/08:00pm 16.6 WNW 9 14 1011.5 - 0.0 - - - - - - -
28/07:30pm 16.8 WNW 11 16 1011.5 - 0.0 - - - - - - -
28/07:00pm 17.1 WNW 11 15 1011.4 - 0.0 - - - - - - -
28/06:30pm 17.6 WNW 13 17 1011.3 - 0.0 - - - - - - -
28/06:00pm 17.9 WNW 12 17 1011.2 - 0.0 - - - - - - -
28/05:30pm 18.3 WNW 12 18 1011.3 - 0.0 - - - - - - -
28/05:00pm 18.3 WNW 11 17 1011.3 - 0.0 - - - - - - -
28/04:30pm 18.5 WNW 13 19 1011.3 - 0.0 - - - - - - -
28/04:00pm 18.2 WNW 12 18 1011.5 - 0.0 - - - - - - -
28/03:30pm 18.8 WNW 15 22 1011.6 - 0.0 - - - - - - -
28/03:00pm 18.4 WNW 18 23 1011.7 - 0.0 - - - - - - -
28/02:30pm 18.5 WNW 19 28 1012.0 - 0.0 - - - - - - -
28/02:20pm 18.7 WNW 17 27 1012.0 - 0.0 - - - - - - -
28/02:00pm 18.7 WNW 17 23 1012.0 - 0.0 - - - - - - -
28/01:30pm 18.6 WNW 17 23 1012.3 - 0.0 - - - - - - -
28/01:00pm 18.3 WNW 16 23 1012.7 - 0.0 - - - - - - -
28/12:30pm 18.0 WNW 17 25 1012.8 - 0.0 - - - - - - -
28/12:00pm 18.1 WNW 16 23 1012.9 - 0.0 - - - - - - -
28/11:30am 17.5 WNW 16 23 1013.2 - 0.0 - - - - - - -
28/11:00am 17.2 WNW 13 20 1013.3 - 0.0 - - - - - - -
28/10:30am 16.9 WNW 14 20 1013.2 - 0.0 - - - - - - -
28/10:00am 16.4 WNW 15 22 1013.1 - 0.0 - - - - - - -
28/09:30am 16.4 NW 13 19 1013.0 - 0.0 - - - - - - -
28/09:00am 15.4 NW 13 21 1012.8 - 2.2 - - - - - - -
28/08:30am 14.9 NW 13 19 1012.6 - 2.2 - - - - - - -
28/08:00am 14.4 NW 13 20 1012.4 - 2.2 - - - - - - -
28/07:30am 14.3 NW 14 23 1012.5 - 2.2 - - - - - - -
28/07:00am 14.5 NW 14 22 1012.2 - 2.2 - - - - - - -
28/06:30am 14.3 NW 14 22 1012.1 - 2.2 - - - - - - -
28/06:00am 14.6 NW 13 20 1012.0 - 2.2 - - - - - - -
28/05:30am 15.0 NW 16 24 1012.0 - 2.2 - - - - - - -
28/05:17am 14.9 NW 15 28 1011.8 - 2.2 - - - - - - -
28/05:00am 15.1 NW 14 23 1011.8 - 2.2 - - - - - - -
28/04:30am 15.0 NW 15 23 1011.7 - 2.2 - - - - - - -
28/04:00am 15.1 NW 12 21 1011.7 - 2.2 - - - - - - -

Other Formats:

Comma delimited format used in spreadsheet applications
http://www.bom.gov.au/fwo/IDT60701/IDT60701.94842.axf

JavaScript Object Notation format (JSON) in row-major order
http://www.bom.gov.au/fwo/IDT60701/IDT60701.94842.json